Time;durP1;ratioP1;P1;durP2;ratioP2;P2;SDS_P1;SDS_P2;PMS_P1;PMS_P2;Temp;Humidity;BMP_temperature;BMP_pressure;BME280_temperature;BME280_humidity;BME280_pressure;Samples;Min_cycle;Max_cycle;Signal;HPM_P1;HPM_P2
2023/04/01 00:01:02;;;;;;;5.47;4.57;;;9.90;99.90;;;;;;4976740;28;20433;-71
2023/04/01 00:03:30;;;;;;;7.90;5.72;;;9.80;99.90;;;;;;4993655;28;20082;-72
2023/04/01 00:05:58;;;;;;;7.55;5.32;;;9.80;99.90;;;;;;4993092;28;20088;-71
2023/04/01 00:08:26;;;;;;;6.93;5.28;;;9.80;99.90;;;;;;4993696;28;20498;-72
2023/04/01 00:10:53;;;;;;;8.75;6.00;;;9.80;99.90;;;;;;4976292;28;20050;-72
2023/04/01 00:13:21;;;;;;;8.52;5.95;;;9.80;99.90;;;;;;4975806;28;20050;-72
2023/04/01 00:15:48;;;;;;;6.97;5.45;;;9.80;99.90;;;;;;4976324;28;20505;-71
2023/04/01 00:18:15;;;;;;;9.88;5.60;;;9.80;99.90;;;;;;4993968;28;20442;-71
2023/04/01 00:20:46;;;;;;;7.43;5.43;;;9.80;99.90;;;;;;4992883;28;20057;-71
2023/04/01 00:23:13;;;;;;;7.63;5.85;;;9.80;99.90;;;;;;4976591;28;20560;-72
2023/04/01 00:25:40;;;;;;;9.25;6.55;;;9.80;99.90;;;;;;4993336;28;20194;-71
2023/04/01 00:28:07;;;;;;;6.97;5.35;;;9.80;99.90;;;;;;4992133;28;20046;-71
2023/04/01 00:30:34;;;;;;;6.45;5.20;;;9.90;99.90;;;;;;4993161;28;20044;-71
2023/04/01 00:33:01;;;;;;;7.35;5.57;;;9.90;99.90;;;;;;4992771;28;20054;-71
2023/04/01 00:35:28;;;;;;;10.40;5.70;;;9.90;99.90;;;;;;4976038;28;20042;-71
2023/04/01 00:37:57;;;;;;;8.27;5.40;;;9.80;99.90;;;;;;4975431;28;20046;-71
2023/04/01 00:40:27;;;;;;;7.22;5.10;;;9.80;99.90;;;;;;4954922;28;20550;-71
2023/04/01 00:42:54;;;;;;;7.47;5.38;;;9.90;99.90;;;;;;4957246;28;20054;-71
2023/04/01 00:45:31;;;;;;;6.20;4.88;;;9.80;99.90;;;;;;4974621;28;20142;-71
2023/04/01 00:48:02;;;;;;;8.05;5.30;;;9.90;99.90;;;;;;4956435;28;20106;-71
2023/04/01 00:50:31;;;;;;;7.60;5.32;;;9.90;99.90;;;;;;4974674;28;20410;-71
2023/04/01 00:53:01;;;;;;;6.78;5.13;;;9.90;99.90;;;;;;4974203;28;20046;-72
2023/04/01 00:55:32;;;;;;;7.25;5.65;;;10.00;99.90;;;;;;4959898;28;20050;-71
2023/04/01 00:58:01;;;;;;;7.18;5.15;;;9.90;99.90;;;;;;4992160;28;20141;-70
2023/04/01 01:00:27;;;;;;;7.00;5.55;;;9.90;99.90;;;;;;4992720;28;20046;-71
2023/04/01 01:02:54;;;;;;;8.70;5.53;;;9.90;99.90;;;;;;4975243;28;20050;-70
2023/04/01 01:05:30;;;;;;;8.38;5.50;;;9.90;99.90;;;;;;4975227;28;20054;-71
2023/04/01 01:08:07;;;;;;;9.45;6.28;;;9.90;99.90;;;;;;4991749;28;20414;-70
2023/04/01 01:10:35;;;;;;;8.63;6.28;;;9.90;99.90;;;;;;4975204;28;20054;-72
2023/04/01 01:13:09;;;;;;;9.95;6.13;;;9.90;99.90;;;;;;4975462;28;20050;-71
2023/04/01 01:15:45;;;;;;;8.77;6.28;;;9.90;99.90;;;;;;4973319;28;20050;-71
2023/04/01 01:18:19;;;;;;;8.73;6.38;;;9.90;99.90;;;;;;4974541;28;20112;-71
2023/04/01 01:21:22;;;;;;;9.13;6.05;;;9.90;99.90;;;;;;4992559;28;20046;-71
2023/04/01 01:24:18;;;;;;;7.00;5.80;;;9.90;99.90;;;;;;4967598;28;20050;-71
2023/04/01 01:26:53;;;;;;;8.20;6.40;;;9.80;99.90;;;;;;4988154;28;20050;-71
2023/04/01 01:30:05;;;;;;;8.57;6.20;;;9.90;99.90;;;;;;4973440;28;20124;-71
2023/04/01 01:32:52;;;;;;;10.50;6.88;;;9.90;99.90;;;;;;4951251;28;20065;-71
2023/04/01 01:35:25;;;;;;;7.78;5.68;;;9.90;99.90;;;;;;4972380;28;20406;-70
2023/04/01 01:37:56;;;;;;;9.40;6.50;;;9.90;99.90;;;;;;4988473;28;20042;-71
2023/04/01 01:40:25;;;;;;;11.52;6.80;;;9.90;99.90;;;;;;4975297;28;20509;-71
2023/04/01 01:42:56;;;;;;;9.13;7.00;;;9.80;99.90;;;;;;4975312;28;20054;-71
2023/04/01 01:45:25;;;;;;;10.60;6.75;;;9.90;99.90;;;;;;4992133;28;20061;-70
2023/04/01 01:47:53;;;;;;;9.00;6.97;;;9.80;99.90;;;;;;4975066;28;20104;-70
2023/04/01 01:50:22;;;;;;;11.00;7.40;;;9.80;99.90;;;;;;4974560;28;20475;-70
2023/04/01 01:52:50;;;;;;;10.60;7.65;;;9.80;99.90;;;;;;4974934;28;20046;-71
2023/04/01 01:55:29;;;;;;;11.02;7.75;;;9.80;99.90;;;;;;4977544;28;20097;-71
2023/04/01 01:58:00;;;;;;;10.77;7.03;;;9.90;99.90;;;;;;4993013;28;20042;-71
2023/04/01 02:00:28;;;;;;;10.45;7.38;;;9.80;99.90;;;;;;4970326;28;20050;-71
2023/04/01 02:02:55;;;;;;;9.43;6.75;;;9.90;99.90;;;;;;4989041;28;20054;-71
2023/04/01 02:05:29;;;;;;;9.65;6.75;;;9.90;99.90;;;;;;4991383;28;20058;-71
2023/04/01 02:08:02;;;;;;;9.85;7.10;;;9.80;99.90;;;;;;4986064;28;20478;-72
2023/04/01 02:10:32;;;;;;;10.30;7.18;;;9.90;99.90;;;;;;4970997;28;20061;-72
2023/04/01 02:13:03;;;;;;;10.07;6.78;;;9.90;99.90;;;;;;4972209;28;20058;-72
2023/04/01 02:15:38;;;;;;;9.75;6.90;;;9.90;99.90;;;;;;4992060;28;20042;-71
2023/04/01 02:18:06;;;;;;;9.80;7.35;;;9.80;99.90;;;;;;4984816;28;20573;-70
2023/04/01 02:20:37;;;;;;;10.25;6.65;;;9.80;99.90;;;;;;4996969;28;20136;-70
2023/04/01 02:23:04;;;;;;;;;;;9.90;99.90;;;;;;4998139;28;20200;-72
2023/04/01 02:25:36;;;;;;;9.10;6.63;;;9.80;99.90;;;;;;4997165;28;19930;-70
2023/04/01 02:28:05;;;;;;;10.73;6.35;;;9.80;99.90;;;;;;4987958;28;20050;-70
2023/04/01 02:30:34;;;;;;;9.38;6.72;;;9.90;99.90;;;;;;4997322;28;20494;-71
2023/04/01 02:33:02;;;;;;;10.07;6.93;;;9.90;99.90;;;;;;4996933;28;20057;-71
2023/04/01 02:35:29;;;;;;;9.38;6.70;;;9.80;99.90;;;;;;4973408;28;20066;-70
2023/04/01 02:37:58;;;;;;;11.02;7.65;;;9.80;99.90;;;;;;4975497;28;20051;-70
2023/04/01 02:40:25;;;;;;;9.20;6.65;;;9.80;99.90;;;;;;4994793;28;20453;-70
2023/04/01 02:42:52;;;;;;;12.70;7.20;;;9.80;99.90;;;;;;4995139;28;20057;-70
2023/04/01 02:45:19;;;;;;;9.05;6.32;;;9.80;99.90;;;;;;4995026;28;20104;-69
2023/04/01 02:47:46;;;;;;;11.35;6.72;;;9.80;99.90;;;;;;4974693;28;20038;-69
2023/04/01 02:50:13;;;;;;;10.82;6.85;;;9.80;99.90;;;;;;4994757;28;20054;-69
2023/04/01 02:52:40;;;;;;;9.35;6.90;;;9.80;99.90;;;;;;4995007;28;20532;-70
2023/04/01 02:55:09;;;;;;;9.52;6.65;;;9.80;99.90;;;;;;4994113;28;20053;-70
2023/04/01 02:57:36;;;;;;;9.68;6.72;;;9.80;99.90;;;;;;4994800;28;20109;-71
2023/04/01 03:00:04;;;;;;;12.00;6.70;;;9.70;99.90;;;;;;4978069;28;20541;-71
2023/04/01 03:02:31;;;;;;;9.85;6.97;;;9.70;99.90;;;;;;4977187;28;20057;-71
2023/04/01 03:04:58;;;;;;;10.18;7.57;;;9.70;99.90;;;;;;4995146;28;20153;-71
2023/04/01 03:07:25;;;;;;;10.38;7.20;;;9.70;99.90;;;;;;4994622;28;20380;-71
2023/04/01 03:09:52;;;;;;;12.70;7.43;;;9.70;99.90;;;;;;4977752;28;20057;-71
2023/04/01 03:12:20;;;;;;;10.50;7.75;;;9.70;99.90;;;;;;4992489;28;20153;-70
2023/04/01 03:14:47;;;;;;;12.80;8.05;;;9.70;99.90;;;;;;4994117;28;20050;-71
2023/04/01 03:17:14;;;;;;;13.75;8.45;;;9.70;99.90;;;;;;4977154;28;20498;-69
2023/04/01 03:19:41;;;;;;;12.55;8.00;;;9.70;99.90;;;;;;5004614;28;20046;-70
2023/04/01 03:22:08;;;;;;;11.88;8.48;;;9.70;99.90;;;;;;5013398;28;20108;-70
2023/04/01 03:24:35;;;;;;;12.73;8.48;;;9.70;99.90;;;;;;4996396;28;20104;-69
2023/04/01 03:27:02;;;;;;;14.88;8.98;;;9.70;99.90;;;;;;4996116;28;20053;-70
2023/04/01 03:29:30;;;;;;;13.43;9.35;;;9.70;99.90;;;;;;4994936;28;20052;-70
2023/04/01 03:31:58;;;;;;;12.40;9.40;;;9.70;99.90;;;;;;4996201;28;20046;-70
2023/04/01 03:34:26;;;;;;;13.93;9.90;;;9.70;99.90;;;;;;4996088;28;20096;-70
2023/04/01 03:36:53;;;;;;;14.27;9.43;;;9.70;99.90;;;;;;4995710;28;20049;-69
2023/04/01 03:39:20;;;;;;;13.32;9.27;;;9.60;99.90;;;;;;5014066;28;20054;-70
2023/04/01 03:41:47;;;;;;;14.45;9.55;;;9.60;99.90;;;;;;5013673;28;20486;-70
2023/04/01 03:44:14;;;;;;;14.35;10.02;;;9.70;99.90;;;;;;5013361;28;20080;-70
2023/04/01 03:46:43;;;;;;;14.40;9.77;;;9.60;99.90;;;;;;4995648;28;20489;-70
2023/04/01 03:49:11;;;;;;;13.23;9.93;;;9.60;99.90;;;;;;4995875;28;20478;-70
2023/04/01 03:51:38;;;;;;;14.68;10.05;;;9.60;99.90;;;;;;4991723;28;20218;-70
2023/04/01 03:54:06;;;;;;;17.85;10.65;;;9.60;99.90;;;;;;4977194;28;20544;-69
2023/04/01 03:56:33;;;;;;;16.02;11.10;;;9.60;99.90;;;;;;4976568;28;20058;-71
2023/04/01 03:59:02;;;;;;;15.25;10.68;;;9.60;99.90;;;;;;4993503;28;20491;-70
2023/04/01 04:01:29;;;;;;;16.75;11.25;;;9.60;99.90;;;;;;4993602;28;20518;-70
2023/04/01 04:03:58;;;;;;;14.38;10.15;;;9.60;99.90;;;;;;4976268;28;20050;-70
2023/04/01 04:06:25;;;;;;;14.60;10.70;;;9.60;99.90;;;;;;4993693;28;20425;-70
2023/04/01 04:08:52;;;;;;;20.55;11.27;;;9.50;99.90;;;;;;4980733;28;20097;-70
2023/04/01 04:11:20;;;;;;;15.77;10.15;;;9.60;99.90;;;;;;4995261;28;20100;-70
2023/04/01 04:13:47;;;;;;;15.95;10.75;;;9.50;99.90;;;;;;4995260;28;20053;-70
2023/04/01 04:16:15;;;;;;;16.40;11.13;;;9.60;99.90;;;;;;5013070;28;20081;-71
2023/04/01 04:18:42;;;;;;;14.45;10.65;;;9.60;99.90;;;;;;4974185;28;20050;-70
2023/04/01 04:21:13;;;;;;;15.48;11.10;;;9.60;99.90;;;;;;4993597;28;20116;-70
2023/04/01 04:23:40;;;;;;;14.52;10.25;;;9.60;99.90;;;;;;4993470;28;20410;-69
2023/04/01 04:26:10;;;;;;;16.35;10.95;;;9.60;99.90;;;;;;4973285;28;20046;-69
2023/04/01 04:28:36;;;;;;;17.17;11.82;;;9.60;99.90;;;;;;4993293;28;20054;-69
2023/04/01 04:31:05;;;;;;;16.65;11.48;;;9.60;99.90;;;;;;4993601;28;20453;-69
2023/04/01 04:33:32;;;;;;;16.75;11.15;;;9.60;99.90;;;;;;4975526;28;20379;-69
2023/04/01 04:35:59;;;;;;;15.82;11.18;;;9.60;99.90;;;;;;4976215;28;20051;-68
2023/04/01 04:38:28;;;;;;;14.70;10.95;;;9.60;99.90;;;;;;4992030;28;20035;-69
2023/04/01 04:40:55;;;;;;;15.05;10.98;;;9.60;99.90;;;;;;4975237;28;20062;-70
2023/04/01 04:43:22;;;;;;;17.92;12.32;;;9.60;99.90;;;;;;4992091;28;20057;-70
2023/04/01 04:45:49;;;;;;;15.48;11.27;;;9.60;99.90;;;;;;4975976;28;20057;-70
2023/04/01 04:48:20;;;;;;;17.10;11.75;;;9.60;99.90;;;;;;4975311;28;20050;-70
2023/04/01 04:50:48;;;;;;;19.08;11.73;;;9.60;99.90;;;;;;4993138;28;20050;-69
2023/04/01 04:53:16;;;;;;;17.88;11.77;;;9.60;99.90;;;;;;4992312;28;20054;-70
2023/04/01 04:55:49;;;;;;;17.30;11.88;;;9.70;99.90;;;;;;4975636;28;20129;-70
2023/04/01 04:58:16;;;;;;;16.65;11.27;;;9.60;99.90;;;;;;4975272;28;20055;-71
2023/04/01 05:00:43;;;;;;;17.17;11.55;;;9.60;99.90;;;;;;5002904;28;20053;-70
2023/04/01 05:03:10;;;;;;;17.10;12.40;;;9.60;99.90;;;;;;4994679;28;20975;-69
2023/04/01 05:05:38;;;;;;;15.82;11.52;;;9.60;99.90;;;;;;5012243;28;20096;-69
2023/04/01 05:08:05;;;;;;;18.70;12.23;;;9.60;99.90;;;;;;4993825;28;20397;-69
2023/04/01 05:10:32;;;;;;;17.15;11.98;;;9.50;99.90;;;;;;4994574;28;20104;-70
2023/04/01 05:13:00;;;;;;;17.70;11.95;;;9.60;99.90;;;;;;5011738;28;20057;-70
2023/04/01 05:15:27;;;;;;;15.98;12.05;;;9.60;99.90;;;;;;5011817;28;20096;-69
2023/04/01 05:17:54;;;;;;;14.63;11.63;;;9.60;99.90;;;;;;5011781;28;20061;-69
2023/04/01 05:20:21;;;;;;;18.70;11.90;;;9.70;99.90;;;;;;5012101;28;20104;-69
2023/04/01 05:22:48;;;;;;;18.20;12.45;;;9.70;99.90;;;;;;4994037;28;20053;-69
2023/04/01 05:25:15;;;;;;;18.40;11.70;;;9.70;99.90;;;;;;4993987;28;20494;-68
2023/04/01 05:27:42;;;;;;;20.05;12.63;;;9.70;99.90;;;;;;5011759;28;20552;-68
2023/04/01 05:30:11;;;;;;;15.27;10.35;;;9.60;99.90;;;;;;5011378;28;20054;-69
2023/04/01 05:32:38;;;;;;;13.88;9.95;;;9.60;99.90;;;;;;4994100;28;20046;-70
2023/04/01 05:35:06;;;;;;;16.63;10.57;;;9.70;99.90;;;;;;4994013;28;20133;-71
2023/04/01 05:37:34;;;;;;;15.55;10.85;;;9.70;99.90;;;;;;4973653;28;20054;-71
2023/04/01 05:40:01;;;;;;;17.63;11.55;;;9.80;99.90;;;;;;4988276;28;20053;-71
2023/04/01 05:42:28;;;;;;;17.45;10.63;;;9.70;99.90;;;;;;4973078;28;20046;-70
2023/04/01 05:44:55;;;;;;;15.88;11.23;;;9.70;99.90;;;;;;4984833;28;20058;-71
2023/04/01 05:47:24;;;;;;;17.00;11.00;;;9.70;99.90;;;;;;4969581;28;20081;-71
2023/04/01 05:49:51;;;;;;;16.20;11.15;;;9.70;99.90;;;;;;4991363;28;20106;-70
2023/04/01 05:52:18;;;;;;;17.15;12.07;;;9.70;99.90;;;;;;4972084;28;20050;-70
2023/04/01 05:54:44;;;;;;;13.43;10.13;;;9.70;99.90;;;;;;4994167;28;20058;-69
2023/04/01 05:57:11;;;;;;;14.43;10.10;;;9.70;99.90;;;;;;4975478;28;20059;-66
2023/04/01 05:59:38;;;;;;;17.05;10.27;;;9.80;99.90;;;;;;4976079;28;20051;-68
2023/04/01 06:02:05;;;;;;;14.38;10.00;;;9.80;99.90;;;;;;4989730;28;20446;-68
2023/04/01 06:04:38;;;;;;;15.38;9.90;;;9.70;99.90;;;;;;4993383;28;20059;-68
2023/04/01 06:07:11;;;;;;;12.48;9.13;;;9.80;99.90;;;;;;4977895;28;20054;-68
2023/04/01 06:09:38;;;;;;;17.60;10.82;;;9.80;99.90;;;;;;4986797;28;20250;-68
2023/04/01 06:12:41;;;;;;;13.40;8.98;;;9.80;99.90;;;;;;4994842;28;20097;-69
2023/04/01 06:15:26;;;;;;;13.73;8.45;;;9.80;99.90;;;;;;4986469;28;20526;-69
2023/04/01 06:18:05;;;;;;;14.93;9.57;;;9.90;99.90;;;;;;4989366;28;20495;-69
2023/04/01 06:20:42;;;;;;;14.68;9.82;;;9.80;99.90;;;;;;4971304;28;20047;-69
2023/04/01 06:23:29;;;;;;;16.65;10.38;;;9.90;99.90;;;;;;4987610;28;20530;-69
2023/04/01 06:26:11;;;;;;;19.75;11.43;;;9.90;99.90;;;;;;4993009;28;20066;-69
2023/04/01 06:29:01;;;;;;;17.05;11.07;;;9.90;99.90;;;;;;4990467;28;20505;-69
2023/04/01 06:31:45;;;;;;;14.88;11.65;;;9.90;99.90;;;;;;4978102;28;20053;-71
2023/04/01 06:34:33;;;;;;;15.82;10.80;;;9.90;99.90;;;;;;4995396;28;20124;-70
2023/04/01 06:37:20;;;;;;;15.90;10.52;;;10.00;99.90;;;;;;4981287;28;20148;-70
2023/04/01 06:40:04;;;;;;;14.98;10.80;;;10.00;99.90;;;;;;4988797;28;20065;-69
2023/04/01 06:42:51;;;;;;;17.48;11.00;;;10.10;99.90;;;;;;4981945;28;20478;-71
2023/04/01 06:45:31;;;;;;;16.73;11.77;;;10.10;99.90;;;;;;4991766;28;20041;-71
2023/04/01 06:48:11;;;;;;;15.33;10.60;;;10.10;99.90;;;;;;4976054;28;20047;-71
2023/04/01 06:50:43;;;;;;;;;;;10.20;99.90;;;;;;4977538;28;20058;-71
2023/04/01 06:53:18;;;;;;;19.25;12.05;;;10.20;99.90;;;;;;4976825;28;19926;-71
2023/04/01 06:55:48;;;;;;;16.58;12.10;;;10.20;99.90;;;;;;4976669;28;20051;-72
2023/04/01 06:58:22;;;;;;;17.88;12.80;;;10.20;99.90;;;;;;4992687;28;20053;-72
2023/04/01 07:00:52;;;;;;;17.35;12.18;;;10.30;99.90;;;;;;4966326;28;20082;-70
2023/04/01 07:03:22;;;;;;;;;;;10.30;99.90;;;;;;4966393;28;20059;-71
2023/04/01 07:05:50;;;;;;;20.42;13.70;;;10.30;99.90;;;;;;4974903;28;20295;-70
2023/04/01 07:08:22;;;;;;;17.63;12.10;;;10.20;99.90;;;;;;4986782;28;20088;-70
2023/04/01 07:10:54;;;;;;;19.27;13.68;;;10.20;99.90;;;;;;4977429;28;20046;-70
2023/04/01 07:13:25;;;;;;;19.73;13.23;;;10.20;99.90;;;;;;4988084;28;20056;-70
2023/04/01 07:16:12;;;;;;;19.25;13.98;;;10.20;99.90;;;;;;4976254;28;20054;-70
2023/04/01 07:18:45;;;;;;;21.20;14.27;;;10.20;99.90;;;;;;4982145;28;20051;-71
2023/04/01 07:21:26;;;;;;;19.30;13.75;;;10.30;99.90;;;;;;4991334;28;21313;-71
2023/04/01 07:24:00;;;;;;;18.48;13.10;;;10.30;99.90;;;;;;4986017;28;20514;-72
2023/04/01 07:26:27;;;;;;;19.58;13.35;;;10.30;99.90;;;;;;4989316;28;20050;-70
2023/04/01 07:28:55;;;;;;;18.35;13.05;;;10.30;99.90;;;;;;4971401;28;20081;-70
2023/04/01 07:31:33;;;;;;;19.65;13.35;;;10.40;99.90;;;;;;4976727;28;20566;-71
2023/04/01 07:34:09;;;;;;;16.50;12.80;;;10.50;99.90;;;;;;4974401;28;20498;-71
2023/04/01 07:36:43;;;;;;;17.35;12.55;;;10.60;99.90;;;;;;4991025;28;20054;-71
2023/04/01 07:39:27;;;;;;;18.15;13.05;;;10.70;99.90;;;;;;4970077;28;20042;-71
2023/04/01 07:42:02;;;;;;;17.42;12.68;;;10.70;99.90;;;;;;4992329;28;20057;-70
2023/04/01 07:44:37;;;;;;;16.10;12.10;;;10.70;99.90;;;;;;4983910;28;20055;-70
2023/04/01 07:47:17;;;;;;;17.20;11.93;;;10.70;99.90;;;;;;4976539;28;20113;-70
2023/04/01 07:49:53;;;;;;;16.17;11.20;;;10.70;99.90;;;;;;4974350;28;20046;-70
2023/04/01 07:52:24;;;;;;;16.10;11.60;;;10.80;99.90;;;;;;4987925;28;20414;-71
2023/04/01 07:54:58;;;;;;;15.30;11.38;;;10.70;99.90;;;;;;4996201;28;20054;-70
2023/04/01 07:57:32;;;;;;;18.42;12.10;;;10.70;99.90;;;;;;4963670;28;20051;-70
2023/04/01 08:00:07;;;;;;;16.25;11.23;;;10.70;99.90;;;;;;4990781;28;20046;-69
2023/04/01 08:02:49;;;;;;;17.33;11.85;;;10.70;99.90;;;;;;4989332;28;20190;-69
2023/04/01 08:05:23;;;;;;;16.73;11.88;;;10.70;99.90;;;;;;4971333;28;20054;-69
2023/04/01 08:07:58;;;;;;;16.58;11.93;;;10.70;99.90;;;;;;4988991;28;20053;-73
2023/04/01 08:10:32;;;;;;;19.65;12.80;;;10.80;99.90;;;;;;4963276;28;20110;-72
2023/04/01 08:13:06;;;;;;;17.75;11.27;;;10.70;99.90;;;;;;4983508;28;20050;-69
2023/04/01 08:15:38;;;;;;;15.10;11.00;;;10.70;99.90;;;;;;4974883;28;20046;-70
2023/04/01 08:18:13;;;;;;;16.77;11.68;;;10.70;99.90;;;;;;4988458;28;20057;-70
2023/04/01 08:20:45;;;;;;;15.05;10.73;;;10.80;99.90;;;;;;4974653;28;20054;-70
2023/04/01 08:23:16;;;;;;;12.50;9.95;;;11.00;99.90;;;;;;4975493;28;20057;-70
2023/04/01 08:25:52;;;;;;;13.25;9.10;;;11.00;99.90;;;;;;4992787;28;20454;-70
2023/04/01 08:28:24;;;;;;;13.32;8.63;;;11.10;99.90;;;;;;4976471;28;20058;-70
2023/04/01 08:30:55;;;;;;;14.18;9.45;;;11.20;99.90;;;;;;4976289;28;20140;-70
2023/04/01 08:33:26;;;;;;;11.95;8.40;;;11.20;99.90;;;;;;4992637;28;20050;-70
2023/04/01 08:35:57;;;;;;;13.73;8.82;;;11.30;99.90;;;;;;4975787;28;20442;-70
2023/04/01 08:38:30;;;;;;;12.25;8.80;;;11.40;99.90;;;;;;4975537;28;20403;-70
2023/04/01 08:41:21;;;;;;;13.57;9.43;;;11.50;99.90;;;;;;4976111;28;20054;-70
2023/04/01 08:44:15;;;;;;;14.20;9.65;;;11.60;99.90;;;;;;4976052;28;20050;-70
2023/04/01 08:47:14;;;;;;;11.98;9.18;;;11.60;99.90;;;;;;4992207;28;20050;-69
2023/04/01 08:50:08;;;;;;;13.00;9.65;;;11.60;99.90;;;;;;4993135;28;20417;-70
2023/04/01 08:52:37;;;;;;;13.85;9.93;;;11.80;99.90;;;;;;4975384;28;20060;-70
2023/04/01 08:55:27;;;;;;;13.75;9.60;;;11.80;99.90;;;;;;4992656;28;20092;-69
2023/04/01 08:58:22;;;;;;;9.38;6.63;;;11.70;99.90;;;;;;4993497;28;20100;-70
2023/04/01 09:00:54;;;;;;;7.72;5.70;;;11.50;99.90;;;;;;5001514;28;20046;-70
2023/04/01 09:03:42;;;;;;;7.47;5.60;;;11.10;99.90;;;;;;4994743;28;20057;-70
2023/04/01 09:06:41;;;;;;;8.88;5.55;;;11.10;99.90;;;;;;4981149;28;20050;-70
2023/04/01 09:09:55;;;;;;;6.72;5.05;;;10.90;99.90;;;;;;4991896;28;20517;-70
2023/04/01 09:12:51;;;;;;;6.90;4.80;;;10.80;99.90;;;;;;4977941;28;20057;-70
2023/04/01 09:15:51;;;;;;;6.93;5.05;;;10.70;99.90;;;;;;4991812;28;20502;-69
2023/04/01 09:18:48;;;;;;;6.43;4.63;;;10.60;99.90;;;;;;4972145;28;20080;-70
2023/04/01 09:21:26;;;;;;;6.25;4.40;;;10.50;99.90;;;;;;4964822;28;20056;-70
2023/04/01 09:24:20;;;;;;;6.43;4.72;;;10.40;99.90;;;;;;4972683;28;20057;-69
2023/04/01 09:27:03;;;;;;;7.00;4.10;;;10.30;99.90;;;;;;4984923;28;20121;-70
2023/04/01 09:29:57;;;;;;;6.22;3.40;;;10.50;99.90;;;;;;4975363;28;20053;-70
2023/04/01 09:32:43;;;;;;;4.72;3.33;;;10.50;99.90;;;;;;4944972;28;20058;-70
2023/04/01 09:35:23;;;;;;;4.25;2.83;;;10.40;99.90;;;;;;4974131;28;20063;-70
2023/04/01 09:38:02;;;;;;;4.32;2.92;;;10.40;99.90;;;;;;4992220;28;20042;-70
2023/04/01 09:40:43;;;;;;;4.15;2.75;;;10.60;99.90;;;;;;4968143;28;20043;-70
2023/04/01 09:43:39;;;;;;;4.72;2.45;;;10.60;99.90;;;;;;4986365;28;20051;-71
2023/04/01 09:46:24;;;;;;;4.95;2.45;;;10.70;99.90;;;;;;4975979;28;20117;-71
2023/04/01 09:49:19;;;;;;;4.47;2.63;;;10.70;99.90;;;;;;4981227;28;20074;-70
2023/04/01 09:51:58;;;;;;;4.03;2.67;;;10.70;99.90;;;;;;4985639;28;20049;-70
2023/04/01 09:54:36;;;;;;;3.58;2.33;;;10.70;99.90;;;;;;4962458;28;20054;-70
2023/04/01 09:57:21;;;;;;;3.72;2.65;;;10.60;99.90;;;;;;4977478;28;20468;-70
2023/04/01 10:00:16;;;;;;;4.70;2.55;;;10.50;99.90;;;;;;4981904;28;20050;-70
2023/04/01 10:03:24;;;;;;;3.63;2.72;;;10.50;99.90;;;;;;4984534;28;20058;-69
2023/04/01 10:06:49;;;;;;;4.82;2.90;;;10.30;99.90;;;;;;4987591;28;20047;-69
2023/04/01 10:09:48;;;;;;;3.05;2.13;;;10.20;99.90;;;;;;4984406;28;20046;-70
2023/04/01 10:12:43;;;;;;;3.53;2.42;;;10.20;99.90;;;;;;4959431;28;20478;-70
2023/04/01 10:15:55;;;;;;;4.70;2.70;;;10.20;99.90;;;;;;4975298;28;20050;-68
2023/04/01 10:19:13;;;;;;;7.15;2.78;;;10.30;99.90;;;;;;4976938;28;20053;-70
2023/04/01 10:22:05;;;;;;;3.55;2.20;;;10.30;99.90;;;;;;4892925;29;20099;-69
2023/04/01 10:25:12;;;;;;;4.10;2.50;;;10.40;99.90;;;;;;4974947;28;20058;-69
2023/04/01 10:28:06;;;;;;;4.30;2.53;;;10.30;99.90;;;;;;4955327;28;20051;-68
2023/04/01 10:31:02;;;;;;;3.88;2.45;;;10.30;99.90;;;;;;4969154;28;20046;-68
2023/04/01 10:33:56;;;;;;;6.20;2.10;;;10.20;99.90;;;;;;4971419;28;20418;-69
2023/04/01 10:36:47;;;;;;;3.42;2.35;;;10.20;99.90;;;;;;4954605;28;20050;-69
2023/04/01 10:39:53;;;;;;;5.40;2.10;;;10.10;99.90;;;;;;4986446;28;20101;-69
2023/04/01 10:43:04;;;;;;;2.95;2.05;;;10.20;99.90;;;;;;4969934;28;20109;-70
2023/04/01 10:46:00;;;;;;;3.65;1.77;;;10.10;99.90;;;;;;4989497;28;20053;-70
2023/04/01 10:49:03;;;;;;;4.75;2.28;;;10.20;99.90;;;;;;4963613;28;20055;-70
2023/04/01 10:51:55;;;;;;;3.17;1.85;;;10.40;99.90;;;;;;4983104;28;20059;-70
2023/04/01 10:54:42;;;;;;;2.72;1.95;;;10.50;99.90;;;;;;4963860;28;20055;-69
2023/04/01 10:57:27;;;;;;;3.95;1.80;;;10.50;99.90;;;;;;4989632;28;20105;-69
2023/04/01 11:00:27;;;;;;;3.53;2.28;;;10.60;99.90;;;;;;4981229;28;20046;-70
2023/04/01 11:03:40;;;;;;;5.70;2.17;;;10.60;99.90;;;;;;4987336;28;20112;-70
2023/04/01 11:06:43;;;;;;;3.42;1.73;;;10.60;99.90;;;;;;4982307;28;20065;-69
2023/04/01 11:09:51;;;;;;;4.28;2.33;;;10.40;99.90;;;;;;4980739;28;20170;-70
2023/04/01 11:13:08;;;;;;;3.58;2.40;;;10.30;99.90;;;;;;4975910;28;20105;-68
2023/04/01 11:16:12;;;;;;;2.97;2.33;;;10.40;99.90;;;;;;4973655;28;20077;-68
2023/04/01 11:19:05;;;;;;;4.55;2.65;;;10.50;99.90;;;;;;4993059;28;20053;-68
2023/04/01 11:22:02;;;;;;;3.38;2.45;;;10.30;99.90;;;;;;4991805;28;20046;-68
2023/04/01 11:24:45;;;;;;;3.75;2.40;;;10.40;99.90;;;;;;4994602;28;20457;-69
2023/04/01 11:27:26;;;;;;;3.92;2.10;;;10.30;99.90;;;;;;4992881;28;20101;-69
2023/04/01 11:30:08;;;;;;;2.92;2.10;;;10.20;99.90;;;;;;4994421;28;20042;-69
2023/04/01 11:32:52;;;;;;;2.85;1.92;;;10.20;99.90;;;;;;4977465;28;20085;-70
2023/04/01 11:35:39;;;;;;;3.08;1.92;;;10.20;99.90;;;;;;4977082;28;20065;-68
2023/04/01 11:38:41;;;;;;;3.20;2.33;;;10.10;99.90;;;;;;4977272;28;20054;-69
2023/04/01 11:41:22;;;;;;;3.13;2.30;;;10.10;99.90;;;;;;4977104;28;20505;-70
2023/04/01 11:44:15;;;;;;;4.15;1.70;;;10.20;99.90;;;;;;4976406;28;20494;-69
2023/04/01 11:46:53;;;;;;;2.85;1.80;;;10.40;99.90;;;;;;4977087;28;20129;-69
2023/04/01 11:49:37;;;;;;;2.75;2.13;;;10.50;99.90;;;;;;4975506;28;20104;-69
2023/04/01 11:52:26;;;;;;;3.65;1.98;;;10.40;99.90;;;;;;4977591;28;20046;-69
2023/04/01 11:55:13;;;;;;;3.08;1.80;;;10.40;99.90;;;;;;4994651;28;20491;-68
2023/04/01 11:57:51;;;;;;;2.78;1.95;;;10.40;99.90;;;;;;4976673;28;20510;-68
2023/04/01 12:00:42;;;;;;;2.53;1.67;;;10.30;99.90;;;;;;4976904;28;20478;-69
2023/04/01 12:03:27;;;;;;;3.08;2.00;;;10.30;99.90;;;;;;4976178;28;20058;-69
2023/04/01 12:06:03;;;;;;;2.72;1.58;;;10.40;99.90;;;;;;4976911;28;20062;-69
2023/04/01 12:08:40;;;;;;;2.95;1.80;;;10.40;99.90;;;;;;4993583;28;20057;-69
2023/04/01 12:11:17;;;;;;;2.53;1.70;;;10.30;99.90;;;;;;5010308;28;20042;-69
2023/04/01 12:13:50;;;;;;;2.20;1.50;;;10.40;99.90;;;;;;5013216;28;20075;-69
2023/04/01 12:16:29;;;;;;;4.35;1.80;;;10.50;99.90;;;;;;4995631;28;20046;-69
2023/04/01 12:19:04;;;;;;;2.60;1.90;;;10.50;99.90;;;;;;5012957;28;20042;-70
2023/04/01 12:21:37;;;;;;;3.50;1.90;;;10.50;99.90;;;;;;4995212;28;20104;-69
2023/04/01 12:24:42;;;;;;;3.30;1.88;;;10.40;99.90;;;;;;5012250;28;20042;-69
2023/04/01 12:27:26;;;;;;;2.70;1.85;;;10.30;99.90;;;;;;5007920;28;20048;-69
2023/04/01 12:30:14;;;;;;;4.03;1.88;;;10.40;99.90;;;;;;4973498;28;20086;-69
2023/04/01 12:32:47;;;;;;;2.67;1.80;;;10.30;99.90;;;;;;4975960;28;20453;-69
2023/04/01 12:35:20;;;;;;;2.50;1.90;;;10.30;99.90;;;;;;4976305;28;20174;-69
2023/04/01 12:37:56;;;;;;;2.50;1.67;;;10.10;99.90;;;;;;4975590;28;20066;-69
2023/04/01 12:40:47;;;;;;;2.63;1.83;;;10.10;99.90;;;;;;4976407;28;20046;-68
2023/04/01 12:43:33;;;;;;;;;;;10.30;99.90;;;;;;4993779;28;20074;-68
2023/04/01 12:46:11;;;;;;;4.00;1.80;;;10.40;99.90;;;;;;4975675;28;19922;-69
2023/04/01 12:49:10;;;;;;;2.90;1.70;;;10.30;99.90;;;;;;4975850;28;20081;-70
2023/04/01 12:51:55;;;;;;;4.53;2.05;;;10.40;99.90;;;;;;4977438;28;20078;-69
2023/04/01 12:54:45;;;;;;;2.75;1.75;;;10.30;99.90;;;;;;4986169;28;20552;-69
2023/04/01 12:57:30;;;;;;;3.80;1.83;;;10.30;99.90;;;;;;4992841;28;20145;-69
2023/04/01 13:00:14;;;;;;;3.28;2.33;;;10.20;99.90;;;;;;5011765;28;20061;-69
2023/04/01 13:02:52;;;;;;;2.42;1.60;;;10.30;99.90;;;;;;4994962;28;20136;-69
2023/04/01 13:05:42;;;;;;;2.95;1.80;;;10.20;99.90;;;;;;4994908;28;20057;-70
2023/04/01 13:08:23;;;;;;;2.90;1.67;;;10.20;99.90;;;;;;5012385;28;20049;-69
2023/04/01 13:11:06;;;;;;;2.60;1.80;;;10.30;99.90;;;;;;4990655;28;20041;-69
2023/04/01 13:14:11;;;;;;;3.22;1.60;;;10.20;99.90;;;;;;4986487;28;20491;-70
2023/04/01 13:16:42;;;;;;;2.40;1.73;;;10.30;99.90;;;;;;4981118;28;20054;-70
2023/04/01 13:19:13;;;;;;;;;;;10.40;99.90;;;;;;4985854;28;20516;-69
2023/04/01 13:21:51;;;;;;;2.92;1.70;;;10.40;99.90;;;;;;4991706;28;20378;-69
2023/04/01 13:24:31;;;;;;;3.28;1.90;;;10.30;99.90;;;;;;4969636;28;20569;-69
2023/04/01 13:27:07;;;;;;;2.65;1.77;;;10.30;99.90;;;;;;4986129;28;20042;-69
2023/04/01 13:29:37;;;;;;;2.45;1.40;;;10.30;99.90;;;;;;4983621;28;20050;-69
2023/04/01 13:32:19;;;;;;;2.47;1.67;;;10.30;99.90;;;;;;4974735;28;20050;-69
2023/04/01 13:34:59;;;;;;;2.40;1.55;;;10.50;99.90;;;;;;4969857;28;20061;-70
2023/04/01 13:37:37;;;;;;;2.53;1.50;;;10.30;99.90;;;;;;4987867;28;20053;-69